sensor_id;sensor_type;location;lat;lon;timestamp;temperature;humidity
65044;DHT22;51617;48.158;16.464;2022-08-21T00:00:14;19.70;93.20
65044;DHT22;51617;48.158;16.464;2022-08-21T00:02:45;19.70;93.40
65044;DHT22;51617;48.158;16.464;2022-08-21T00:05:11;19.70;93.30
65044;DHT22;51617;48.158;16.464;2022-08-21T00:07:36;19.60;93.10
65044;DHT22;51617;48.158;16.464;2022-08-21T00:10:02;19.60;93.20
65044;DHT22;51617;48.158;16.464;2022-08-21T00:12:29;19.70;93.50
65044;DHT22;51617;48.158;16.464;2022-08-21T00:14:56;19.70;93.50
65044;DHT22;51617;48.158;16.464;2022-08-21T00:17:22;19.60;93.10
65044;DHT22;51617;48.158;16.464;2022-08-21T00:19:47;19.60;93.20
65044;DHT22;51617;48.158;16.464;2022-08-21T00:22:13;19.60;93.40
65044;DHT22;51617;48.158;16.464;2022-08-21T00:24:39;19.70;93.40
65044;DHT22;51617;48.158;16.464;2022-08-21T00:27:04;19.70;93.40
65044;DHT22;51617;48.158;16.464;2022-08-21T00:29:30;19.70;93.40
65044;DHT22;51617;48.158;16.464;2022-08-21T00:31:55;19.60;93.10
65044;DHT22;51617;48.158;16.464;2022-08-21T00:34:21;19.60;93.30
65044;DHT22;51617;48.158;16.464;2022-08-21T00:36:46;19.60;93.20
65044;DHT22;51617;48.158;16.464;2022-08-21T00:39:12;19.60;93.20
65044;DHT22;51617;48.158;16.464;2022-08-21T00:41:38;19.70;93.20
65044;DHT22;51617;48.158;16.464;2022-08-21T00:44:04;19.70;93.10
65044;DHT22;51617;48.158;16.464;2022-08-21T00:46:30;19.70;93.00
65044;DHT22;51617;48.158;16.464;2022-08-21T00:48:55;19.60;93.10
65044;DHT22;51617;48.158;16.464;2022-08-21T00:52:03;19.60;92.80
65044;DHT22;51617;48.158;16.464;2022-08-21T00:54:10;19.70;92.90
65044;DHT22;51617;48.158;16.464;2022-08-21T00:56:36;19.70;93.00
65044;DHT22;51617;48.158;16.464;2022-08-21T00:59:02;19.70;92.60
65044;DHT22;51617;48.158;16.464;2022-08-21T01:01:28;19.70;92.60
65044;DHT22;51617;48.158;16.464;2022-08-21T01:03:53;19.80;92.80
65044;DHT22;51617;48.158;16.464;2022-08-21T01:06:19;19.80;92.80
65044;DHT22;51617;48.158;16.464;2022-08-21T01:08:44;19.70;92.60
65044;DHT22;51617;48.158;16.464;2022-08-21T01:11:11;19.70;92.60
65044;DHT22;51617;48.158;16.464;2022-08-21T01:13:36;19.70;92.60
65044;DHT22;51617;48.158;16.464;2022-08-21T01:16:04;19.80;92.90
65044;DHT22;51617;48.158;16.464;2022-08-21T01:18:33;19.80;92.80
65044;DHT22;51617;48.158;16.464;2022-08-21T01:23:37;19.80;92.70
65044;DHT22;51617;48.158;16.464;2022-08-21T01:26:03;19.80;92.70
65044;DHT22;51617;48.158;16.464;2022-08-21T01:28:29;19.90;92.60
65044;DHT22;51617;48.158;16.464;2022-08-21T01:30:56;19.80;92.70
65044;DHT22;51617;48.158;16.464;2022-08-21T01:33:22;19.90;92.40
65044;DHT22;51617;48.158;16.464;2022-08-21T01:35:49;20.00;92.60
65044;DHT22;51617;48.158;16.464;2022-08-21T01:38:15;20.00;92.50
65044;DHT22;51617;48.158;16.464;2022-08-21T01:40:40;20.00;92.50
65044;DHT22;51617;48.158;16.464;2022-08-21T01:43:06;20.00;92.50
65044;DHT22;51617;48.158;16.464;2022-08-21T01:45:31;20.00;92.20
65044;DHT22;51617;48.158;16.464;2022-08-21T01:47:57;20.10;92.50
65044;DHT22;51617;48.158;16.464;2022-08-21T01:50:22;20.10;92.60
65044;DHT22;51617;48.158;16.464;2022-08-21T01:52:48;20.00;92.60
65044;DHT22;51617;48.158;16.464;2022-08-21T01:55:14;20.00;92.40
65044;DHT22;51617;48.158;16.464;2022-08-21T01:57:41;19.90;92.60
65044;DHT22;51617;48.158;16.464;2022-08-21T02:00:08;19.90;92.70
65044;DHT22;51617;48.158;16.464;2022-08-21T02:02:35;19.90;93.00
65044;DHT22;51617;48.158;16.464;2022-08-21T02:05:00;19.80;93.30
65044;DHT22;51617;48.158;16.464;2022-08-21T02:07:26;19.80;93.10
65044;DHT22;51617;48.158;16.464;2022-08-21T02:09:51;19.70;93.20
65044;DHT22;51617;48.158;16.464;2022-08-21T02:12:17;19.70;93.60
65044;DHT22;51617;48.158;16.464;2022-08-21T02:14:42;19.60;93.70
65044;DHT22;51617;48.158;16.464;2022-08-21T02:17:08;19.60;93.50
65044;DHT22;51617;48.158;16.464;2022-08-21T02:19:33;19.60;93.60
65044;DHT22;51617;48.158;16.464;2022-08-21T02:21:59;19.60;94.00
65044;DHT22;51617;48.158;16.464;2022-08-21T02:24:24;19.50;94.10
65044;DHT22;51617;48.158;16.464;2022-08-21T02:26:50;19.50;93.90
65044;DHT22;51617;48.158;16.464;2022-08-21T02:29:15;19.60;94.10
65044;DHT22;51617;48.158;16.464;2022-08-21T02:31:41;19.50;94.20
65044;DHT22;51617;48.158;16.464;2022-08-21T02:34:06;19.60;94.40
65044;DHT22;51617;48.158;16.464;2022-08-21T02:36:32;19.60;93.80
65044;DHT22;51617;48.158;16.464;2022-08-21T02:38:57;19.60;93.80
65044;DHT22;51617;48.158;16.464;2022-08-21T02:41:23;19.60;93.80
65044;DHT22;51617;48.158;16.464;2022-08-21T02:43:49;19.70;94.10
65044;DHT22;51617;48.158;16.464;2022-08-21T02:46:15;19.60;93.90
65044;DHT22;51617;48.158;16.464;2022-08-21T02:48:41;19.60;94.00
65044;DHT22;51617;48.158;16.464;2022-08-21T02:51:08;19.60;93.90
65044;DHT22;51617;48.158;16.464;2022-08-21T02:53:34;19.60;93.90
65044;DHT22;51617;48.158;16.464;2022-08-21T02:56:01;19.60;94.10
65044;DHT22;51617;48.158;16.464;2022-08-21T02:58:28;19.60;94.10
65044;DHT22;51617;48.158;16.464;2022-08-21T03:00:56;19.60;94.00
65044;DHT22;51617;48.158;16.464;2022-08-21T03:03:23;19.70;94.00
65044;DHT22;51617;48.158;16.464;2022-08-21T03:05:49;19.70;94.00
65044;DHT22;51617;48.158;16.464;2022-08-21T03:08:16;19.70;93.70
65044;DHT22;51617;48.158;16.464;2022-08-21T03:10:43;19.70;93.90
65044;DHT22;51617;48.158;16.464;2022-08-21T03:13:09;19.70;93.70
65044;DHT22;51617;48.158;16.464;2022-08-21T03:15:35;19.70;94.00
65044;DHT22;51617;48.158;16.464;2022-08-21T03:18:01;19.70;93.70
65044;DHT22;51617;48.158;16.464;2022-08-21T03:20:27;19.80;93.90
65044;DHT22;51617;48.158;16.464;2022-08-21T03:22:53;19.80;93.90
65044;DHT22;51617;48.158;16.464;2022-08-21T03:25:20;19.80;93.60
65044;DHT22;51617;48.158;16.464;2022-08-21T03:27:46;19.80;93.90
65044;DHT22;51617;48.158;16.464;2022-08-21T03:30:14;19.80;93.90
65044;DHT22;51617;48.158;16.464;2022-08-21T03:32:40;19.80;93.80
65044;DHT22;51617;48.158;16.464;2022-08-21T03:35:06;19.70;93.50
65044;DHT22;51617;48.158;16.464;2022-08-21T03:37:32;19.70;93.40
65044;DHT22;51617;48.158;16.464;2022-08-21T03:39:57;19.70;93.40
65044;DHT22;51617;48.158;16.464;2022-08-21T03:42:23;19.70;93.40
65044;DHT22;51617;48.158;16.464;2022-08-21T03:44:48;19.70;93.30
65044;DHT22;51617;48.158;16.464;2022-08-21T03:47:14;19.70;93.30
65044;DHT22;51617;48.158;16.464;2022-08-21T03:49:39;19.80;93.40
65044;DHT22;51617;48.158;16.464;2022-08-21T03:52:05;19.70;93.00
65044;DHT22;51617;48.158;16.464;2022-08-21T03:54:30;19.80;93.20
65044;DHT22;51617;48.158;16.464;2022-08-21T03:56:56;19.80;93.20
65044;DHT22;51617;48.158;16.464;2022-08-21T03:59:22;19.80;93.20
65044;DHT22;51617;48.158;16.464;2022-08-21T04:01:51;19.80;93.30
65044;DHT22;51617;48.158;16.464;2022-08-21T04:04:17;19.70;93.30
65044;DHT22;51617;48.158;16.464;2022-08-21T04:06:42;19.80;93.40
65044;DHT22;51617;48.158;16.464;2022-08-21T04:09:08;19.80;93.10
65044;DHT22;51617;48.158;16.464;2022-08-21T04:11:34;19.70;92.90
65044;DHT22;51617;48.158;16.464;2022-08-21T04:14:00;19.80;92.80
65044;DHT22;51617;48.158;16.464;2022-08-21T04:16:25;19.80;92.80
65044;DHT22;51617;48.158;16.464;2022-08-21T04:18:51;19.90;92.80
65044;DHT22;51617;48.158;16.464;2022-08-21T04:21:16;19.90;93.00
65044;DHT22;51617;48.158;16.464;2022-08-21T04:23:42;19.90;92.90
65044;DHT22;51617;48.158;16.464;2022-08-21T04:26:07;19.90;92.60
65044;DHT22;51617;48.158;16.464;2022-08-21T04:28:33;19.90;92.60
65044;DHT22;51617;48.158;16.464;2022-08-21T04:30:58;19.90;92.50
65044;DHT22;51617;48.158;16.464;2022-08-21T04:33:24;19.90;92.70
65044;DHT22;51617;48.158;16.464;2022-08-21T04:35:50;19.90;92.70
65044;DHT22;51617;48.158;16.464;2022-08-21T04:38:15;19.90;92.80
65044;DHT22;51617;48.158;16.464;2022-08-21T04:40:41;19.90;92.70
65044;DHT22;51617;48.158;16.464;2022-08-21T04:43:08;19.80;92.50
65044;DHT22;51617;48.158;16.464;2022-08-21T04:45:35;19.90;92.40
65044;DHT22;51617;48.158;16.464;2022-08-21T04:48:01;20.00;92.50
65044;DHT22;51617;48.158;16.464;2022-08-21T04:50:29;20.00;92.50
65044;DHT22;51617;48.158;16.464;2022-08-21T04:52:55;20.00;92.60
65044;DHT22;51617;48.158;16.464;2022-08-21T04:55:21;20.00;92.60
65044;DHT22;51617;48.158;16.464;2022-08-21T04:57:47;20.00;92.60
65044;DHT22;51617;48.158;16.464;2022-08-21T05:00:15;20.00;92.60
65044;DHT22;51617;48.158;16.464;2022-08-21T05:02:43;20.00;92.70
65044;DHT22;51617;48.158;16.464;2022-08-21T05:05:09;20.00;92.80
65044;DHT22;51617;48.158;16.464;2022-08-21T05:07:35;20.10;92.70
65044;DHT22;51617;48.158;16.464;2022-08-21T05:10:02;20.10;92.60
65044;DHT22;51617;48.158;16.464;2022-08-21T05:12:28;20.10;92.70
65044;DHT22;51617;48.158;16.464;2022-08-21T05:14:53;20.10;92.40
65044;DHT22;51617;48.158;16.464;2022-08-21T05:17:19;20.20;92.30
65044;DHT22;51617;48.158;16.464;2022-08-21T05:19:45;20.20;92.50
65044;DHT22;51617;48.158;16.464;2022-08-21T05:22:10;20.30;92.40
65044;DHT22;51617;48.158;16.464;2022-08-21T05:24:36;20.30;92.30
65044;DHT22;51617;48.158;16.464;2022-08-21T05:27:01;20.30;92.20
65044;DHT22;51617;48.158;16.464;2022-08-21T05:29:27;20.40;92.10
65044;DHT22;51617;48.158;16.464;2022-08-21T05:31:52;20.40;92.00
65044;DHT22;51617;48.158;16.464;2022-08-21T05:34:18;20.50;92.00
65044;DHT22;51617;48.158;16.464;2022-08-21T05:36:44;20.50;91.90
65044;DHT22;51617;48.158;16.464;2022-08-21T05:39:10;20.60;91.80
65044;DHT22;51617;48.158;16.464;2022-08-21T05:41:35;20.50;91.60
65044;DHT22;51617;48.158;16.464;2022-08-21T05:44:01;20.60;91.70
65044;DHT22;51617;48.158;16.464;2022-08-21T05:46:26;20.70;91.40
65044;DHT22;51617;48.158;16.464;2022-08-21T05:48:52;20.70;91.50
65044;DHT22;51617;48.158;16.464;2022-08-21T05:51:17;20.70;91.00
65044;DHT22;51617;48.158;16.464;2022-08-21T05:53:43;20.80;91.30
65044;DHT22;51617;48.158;16.464;2022-08-21T05:56:09;20.80;91.30
65044;DHT22;51617;48.158;16.464;2022-08-21T05:58:35;20.80;91.40
65044;DHT22;51617;48.158;16.464;2022-08-21T06:01:02;20.80;91.30
65044;DHT22;51617;48.158;16.464;2022-08-21T06:03:29;20.90;91.20
65044;DHT22;51617;48.158;16.464;2022-08-21T06:05:55;21.00;90.80
65044;DHT22;51617;48.158;16.464;2022-08-21T06:08:21;21.00;91.00
65044;DHT22;51617;48.158;16.464;2022-08-21T06:10:47;20.90;90.90
65044;DHT22;51617;48.158;16.464;2022-08-21T06:13:13;21.00;91.00
65044;DHT22;51617;48.158;16.464;2022-08-21T06:15:38;21.00;90.90
65044;DHT22;51617;48.158;16.464;2022-08-21T06:18:04;20.90;91.00
65044;DHT22;51617;48.158;16.464;2022-08-21T06:20:29;21.00;91.10
65044;DHT22;51617;48.158;16.464;2022-08-21T06:22:55;21.10;90.80
65044;DHT22;51617;48.158;16.464;2022-08-21T06:25:21;21.10;90.90
65044;DHT22;51617;48.158;16.464;2022-08-21T06:27:46;21.10;90.70
65044;DHT22;51617;48.158;16.464;2022-08-21T06:30:12;21.10;90.70
65044;DHT22;51617;48.158;16.464;2022-08-21T06:32:38;21.10;90.70
65044;DHT22;51617;48.158;16.464;2022-08-21T06:35:03;21.10;90.80
65044;DHT22;51617;48.158;16.464;2022-08-21T06:37:29;21.20;90.60
65044;DHT22;51617;48.158;16.464;2022-08-21T06:39:54;21.30;90.60
65044;DHT22;51617;48.158;16.464;2022-08-21T06:42:20;21.30;90.30
65044;DHT22;51617;48.158;16.464;2022-08-21T06:44:46;21.40;90.00
65044;DHT22;51617;48.158;16.464;2022-08-21T06:47:12;21.50;90.10
65044;DHT22;51617;48.158;16.464;2022-08-21T06:49:38;21.50;89.90
65044;DHT22;51617;48.158;16.464;2022-08-21T06:52:07;21.50;89.50
65044;DHT22;51617;48.158;16.464;2022-08-21T06:54:33;21.60;89.20
65044;DHT22;51617;48.158;16.464;2022-08-21T06:56:58;21.60;89.10
65044;DHT22;51617;48.158;16.464;2022-08-21T06:59:24;21.60;89.10
65044;DHT22;51617;48.158;16.464;2022-08-21T07:01:49;21.70;88.90
65044;DHT22;51617;48.158;16.464;2022-08-21T07:04:15;21.60;88.60
65044;DHT22;51617;48.158;16.464;2022-08-21T07:06:40;21.60;89.20
65044;DHT22;51617;48.158;16.464;2022-08-21T07:09:06;21.60;89.50
65044;DHT22;51617;48.158;16.464;2022-08-21T07:11:32;21.50;89.90
65044;DHT22;51617;48.158;16.464;2022-08-21T07:13:57;21.50;89.70
65044;DHT22;51617;48.158;16.464;2022-08-21T07:16:23;21.50;89.70
65044;DHT22;51617;48.158;16.464;2022-08-21T07:18:49;21.60;89.30
65044;DHT22;51617;48.158;16.464;2022-08-21T07:21:15;21.60;89.20
65044;DHT22;51617;48.158;16.464;2022-08-21T07:23:42;21.50;89.30
65044;DHT22;51617;48.158;16.464;2022-08-21T07:26:08;21.50;89.20
65044;DHT22;51617;48.158;16.464;2022-08-21T07:28:35;21.40;90.10
65044;DHT22;51617;48.158;16.464;2022-08-21T07:31:01;21.40;89.80
65044;DHT22;51617;48.158;16.464;2022-08-21T07:33:28;21.40;89.80
65044;DHT22;51617;48.158;16.464;2022-08-21T07:35:54;21.40;90.00
65044;DHT22;51617;48.158;16.464;2022-08-21T07:38:20;21.40;90.00
65044;DHT22;51617;48.158;16.464;2022-08-21T07:40:46;21.30;90.00
65044;DHT22;51617;48.158;16.464;2022-08-21T07:43:12;21.20;90.20
65044;DHT22;51617;48.158;16.464;2022-08-21T07:45:37;21.30;90.30
65044;DHT22;51617;48.158;16.464;2022-08-21T07:48:03;21.30;90.20
65044;DHT22;51617;48.158;16.464;2022-08-21T07:50:29;21.30;90.10
65044;DHT22;51617;48.158;16.464;2022-08-21T07:52:54;21.30;90.10
65044;DHT22;51617;48.158;16.464;2022-08-21T07:55:20;21.30;90.20
65044;DHT22;51617;48.158;16.464;2022-08-21T07:57:47;21.30;90.20
65044;DHT22;51617;48.158;16.464;2022-08-21T08:00:14;21.40;90.20
65044;DHT22;51617;48.158;16.464;2022-08-21T08:02:40;21.50;90.00
65044;DHT22;51617;48.158;16.464;2022-08-21T08:05:07;21.60;89.80
65044;DHT22;51617;48.158;16.464;2022-08-21T08:07:33;21.60;89.50
65044;DHT22;51617;48.158;16.464;2022-08-21T08:09:59;21.60;89.50
65044;DHT22;51617;48.158;16.464;2022-08-21T08:12:25;21.60;90.00
65044;DHT22;51617;48.158;16.464;2022-08-21T08:14:58;21.60;90.30
65044;DHT22;51617;48.158;16.464;2022-08-21T08:17:24;21.60;90.20
65044;DHT22;51617;48.158;16.464;2022-08-21T08:19:50;21.60;90.20
65044;DHT22;51617;48.158;16.464;2022-08-21T08:22:16;21.70;90.50
65044;DHT22;51617;48.158;16.464;2022-08-21T08:24:42;21.60;90.70
65044;DHT22;51617;48.158;16.464;2022-08-21T08:27:07;21.50;91.10
65044;DHT22;51617;48.158;16.464;2022-08-21T08:29:33;21.60;91.30
65044;DHT22;51617;48.158;16.464;2022-08-21T08:31:58;21.60;91.30
65044;DHT22;51617;48.158;16.464;2022-08-21T08:34:24;21.60;91.50
65044;DHT22;51617;48.158;16.464;2022-08-21T08:36:50;21.70;91.30
65044;DHT22;51617;48.158;16.464;2022-08-21T08:39:15;21.70;91.40
65044;DHT22;51617;48.158;16.464;2022-08-21T08:41:41;21.80;91.30
65044;DHT22;51617;48.158;16.464;2022-08-21T08:44:08;21.90;90.90
65044;DHT22;51617;48.158;16.464;2022-08-21T08:46:41;21.90;91.00
65044;DHT22;51617;48.158;16.464;2022-08-21T08:49:13;21.90;90.60
65044;DHT22;51617;48.158;16.464;2022-08-21T08:54:11;21.80;90.40
65044;DHT22;51617;48.158;16.464;2022-08-21T08:56:38;21.80;90.30
65044;DHT22;51617;48.158;16.464;2022-08-21T08:59:24;21.90;90.20
65044;DHT22;51617;48.158;16.464;2022-08-21T09:01:51;21.90;90.00
65044;DHT22;51617;48.158;16.464;2022-08-21T09:04:18;21.90;90.10
65044;DHT22;51617;48.158;16.464;2022-08-21T09:09:18;22.10;89.70
65044;DHT22;51617;48.158;16.464;2022-08-21T09:11:48;22.30;89.40
65044;DHT22;51617;48.158;16.464;2022-08-21T09:16:58;22.40;89.00
65044;DHT22;51617;48.158;16.464;2022-08-21T09:27:05;22.80;88.80
65044;DHT22;51617;48.158;16.464;2022-08-21T09:29:34;22.90;88.30
65044;DHT22;51617;48.158;16.464;2022-08-21T09:32:00;20.50;87.40
65044;DHT22;51617;48.158;16.464;2022-08-21T09:34:27;22.90;88.90
65044;DHT22;51617;48.158;16.464;2022-08-21T09:36:54;22.50;90.30
65044;DHT22;51617;48.158;16.464;2022-08-21T09:39:30;22.40;91.10
65044;DHT22;51617;48.158;16.464;2022-08-21T09:41:57;22.20;91.70
65044;DHT22;51617;48.158;16.464;2022-08-21T09:44:26;22.30;92.00
65044;DHT22;51617;48.158;16.464;2022-08-21T09:46:52;22.30;92.30
65044;DHT22;51617;48.158;16.464;2022-08-21T09:49:26;22.40;91.90
65044;DHT22;51617;48.158;16.464;2022-08-21T09:51:52;22.70;91.50
65044;DHT22;51617;48.158;16.464;2022-08-21T09:54:29;22.80;91.00
65044;DHT22;51617;48.158;16.464;2022-08-21T09:56:56;22.80;90.50
65044;DHT22;51617;48.158;16.464;2022-08-21T09:59:41;22.70;90.60
65044;DHT22;51617;48.158;16.464;2022-08-21T10:04:56;23.00;90.20
65044;DHT22;51617;48.158;16.464;2022-08-21T10:07:24;23.00;89.90
65044;DHT22;51617;48.158;16.464;2022-08-21T10:10:04;22.80;89.60
65044;DHT22;51617;48.158;16.464;2022-08-21T10:15:06;22.60;90.00
65044;DHT22;51617;48.158;16.464;2022-08-21T10:20:05;22.50;90.10
65044;DHT22;51617;48.158;16.464;2022-08-21T10:30:04;22.50;90.10
65044;DHT22;51617;48.158;16.464;2022-08-21T10:35:31;22.40;90.50
65044;DHT22;51617;48.158;16.464;2022-08-21T10:40:49;21.80;92.10
65044;DHT22;51617;48.158;16.464;2022-08-21T10:43:18;21.60;92.40
65044;DHT22;51617;48.158;16.464;2022-08-21T10:51:06;21.90;92.00
65044;DHT22;51617;48.158;16.464;2022-08-21T10:58:33;22.00;91.50
65044;DHT22;51617;48.158;16.464;2022-08-21T11:01:10;21.90;91.60
65044;DHT22;51617;48.158;16.464;2022-08-21T11:03:49;21.80;91.90
65044;DHT22;51617;48.158;16.464;2022-08-21T11:06:34;21.80;92.20
65044;DHT22;51617;48.158;16.464;2022-08-21T11:09:13;21.80;92.60
65044;DHT22;51617;48.158;16.464;2022-08-21T11:11:41;21.80;93.00
65044;DHT22;51617;48.158;16.464;2022-08-21T11:14:13;21.90;92.30
65044;DHT22;51617;48.158;16.464;2022-08-21T11:16:44;21.80;92.50
65044;DHT22;51617;48.158;16.464;2022-08-21T11:19:19;21.70;92.60
65044;DHT22;51617;48.158;16.464;2022-08-21T11:25:07;21.60;92.50
65044;DHT22;51617;48.158;16.464;2022-08-21T11:27:33;21.90;91.20
65044;DHT22;51617;48.158;16.464;2022-08-21T11:30:00;22.10;90.80
65044;DHT22;51617;48.158;16.464;2022-08-21T11:40:12;23.30;87.20
65044;DHT22;51617;48.158;16.464;2022-08-21T11:45:11;23.00;85.90
65044;DHT22;51617;48.158;16.464;2022-08-21T11:50:25;23.20;85.10
65044;DHT22;51617;48.158;16.464;2022-08-21T11:52:53;23.30;85.10
65044;DHT22;51617;48.158;16.464;2022-08-21T11:57:51;23.20;86.20
65044;DHT22;51617;48.158;16.464;2022-08-21T12:00:33;23.00;85.70
65044;DHT22;51617;48.158;16.464;2022-08-21T12:04:01;23.00;85.80
65044;DHT22;51617;48.158;16.464;2022-08-21T12:05:56;23.10;86.00
65044;DHT22;51617;48.158;16.464;2022-08-21T12:08:30;23.10;85.80
65044;DHT22;51617;48.158;16.464;2022-08-21T12:11:01;22.90;85.90
65044;DHT22;51617;48.158;16.464;2022-08-21T12:13:30;22.90;86.10
65044;DHT22;51617;48.158;16.464;2022-08-21T12:16:15;22.80;86.10
65044;DHT22;51617;48.158;16.464;2022-08-21T12:18:42;22.80;86.60
65044;DHT22;51617;48.158;16.464;2022-08-21T12:21:21;22.90;86.70
65044;DHT22;51617;48.158;16.464;2022-08-21T12:23:57;22.90;86.50
65044;DHT22;51617;48.158;16.464;2022-08-21T12:26:32;22.80;86.30
65044;DHT22;51617;48.158;16.464;2022-08-21T12:29:04;22.90;86.20
65044;DHT22;51617;48.158;16.464;2022-08-21T12:31:30;23.00;86.10
65044;DHT22;51617;48.158;16.464;2022-08-21T12:33:58;22.90;85.50
65044;DHT22;51617;48.158;16.464;2022-08-21T12:36:38;22.70;86.00
65044;DHT22;51617;48.158;16.464;2022-08-21T12:39:05;22.60;86.40
65044;DHT22;51617;48.158;16.464;2022-08-21T12:41:47;22.60;86.90
65044;DHT22;51617;48.158;16.464;2022-08-21T12:44:14;22.50;88.00
65044;DHT22;51617;48.158;16.464;2022-08-21T12:46:58;22.30;88.20
65044;DHT22;51617;48.158;16.464;2022-08-21T12:49:32;22.00;89.10
65044;DHT22;51617;48.158;16.464;2022-08-21T12:54:45;21.90;89.20
65044;DHT22;51617;48.158;16.464;2022-08-21T12:57:18;21.80;89.60
65044;DHT22;51617;48.158;16.464;2022-08-21T12:59:44;21.80;90.10
65044;DHT22;51617;48.158;16.464;2022-08-21T13:02:13;21.80;90.20
65044;DHT22;51617;48.158;16.464;2022-08-21T13:04:40;21.70;90.30
65044;DHT22;51617;48.158;16.464;2022-08-21T13:07:07;21.60;90.40
65044;DHT22;51617;48.158;16.464;2022-08-21T13:09:36;21.50;90.60
65044;DHT22;51617;48.158;16.464;2022-08-21T13:12:06;21.50;90.70
65044;DHT22;51617;48.158;16.464;2022-08-21T13:14:35;21.50;90.50
65044;DHT22;51617;48.158;16.464;2022-08-21T13:17:03;21.50;90.60
65044;DHT22;51617;48.158;16.464;2022-08-21T13:19:28;21.60;90.30
65044;DHT22;51617;48.158;16.464;2022-08-21T13:21:54;21.60;90.40
65044;DHT22;51617;48.158;16.464;2022-08-21T13:24:21;21.60;90.50
65044;DHT22;51617;48.158;16.464;2022-08-21T13:26:48;21.60;90.30
65044;DHT22;51617;48.158;16.464;2022-08-21T13:29:14;21.60;90.20
65044;DHT22;51617;48.158;16.464;2022-08-21T13:31:47;21.60;90.10
65044;DHT22;51617;48.158;16.464;2022-08-21T13:34:13;21.50;89.80
65044;DHT22;51617;48.158;16.464;2022-08-21T13:36:40;21.60;90.00
65044;DHT22;51617;48.158;16.464;2022-08-21T13:39:07;21.80;89.50
65044;DHT22;51617;48.158;16.464;2022-08-21T13:41:34;22.00;89.30
65044;DHT22;51617;48.158;16.464;2022-08-21T13:44:02;22.10;88.80
65044;DHT22;51617;48.158;16.464;2022-08-21T13:46:29;22.10;88.50
65044;DHT22;51617;48.158;16.464;2022-08-21T13:48:55;22.10;87.90
65044;DHT22;51617;48.158;16.464;2022-08-21T13:51:21;22.10;88.00
65044;DHT22;51617;48.158;16.464;2022-08-21T13:53:48;22.10;88.30
65044;DHT22;51617;48.158;16.464;2022-08-21T13:56:25;22.10;88.30
65044;DHT22;51617;48.158;16.464;2022-08-21T13:58:51;22.10;88.10
65044;DHT22;51617;48.158;16.464;2022-08-21T14:01:18;22.20;87.80
65044;DHT22;51617;48.158;16.464;2022-08-21T14:03:45;22.30;87.50
65044;DHT22;51617;48.158;16.464;2022-08-21T14:06:15;22.40;87.20
65044;DHT22;51617;48.158;16.464;2022-08-21T14:08:41;22.30;87.40
65044;DHT22;51617;48.158;16.464;2022-08-21T14:11:10;22.30;87.30
65044;DHT22;51617;48.158;16.464;2022-08-21T14:13:37;22.40;86.90
65044;DHT22;51617;48.158;16.464;2022-08-21T14:16:09;22.50;87.00
65044;DHT22;51617;48.158;16.464;2022-08-21T14:18:42;22.50;86.20
65044;DHT22;51617;48.158;16.464;2022-08-21T14:21:08;22.50;86.20
65044;DHT22;51617;48.158;16.464;2022-08-21T14:23:34;22.50;86.00
65044;DHT22;51617;48.158;16.464;2022-08-21T14:26:02;22.40;85.90
65044;DHT22;51617;48.158;16.464;2022-08-21T14:28:31;22.50;86.00
65044;DHT22;51617;48.158;16.464;2022-08-21T14:30:57;22.50;85.70
65044;DHT22;51617;48.158;16.464;2022-08-21T14:35:52;22.60;85.20
65044;DHT22;51617;48.158;16.464;2022-08-21T14:38:19;22.70;85.30
65044;DHT22;51617;48.158;16.464;2022-08-21T14:40:47;22.70;85.20
65044;DHT22;51617;48.158;16.464;2022-08-21T14:43:12;22.60;85.10
65044;DHT22;51617;48.158;16.464;2022-08-21T14:45:38;22.60;85.10
65044;DHT22;51617;48.158;16.464;2022-08-21T14:48:06;22.60;85.30
65044;DHT22;51617;48.158;16.464;2022-08-21T14:50:32;22.90;85.40
65044;DHT22;51617;48.158;16.464;2022-08-21T14:52:57;22.60;85.60
65044;DHT22;51617;48.158;16.464;2022-08-21T14:55:23;22.50;84.60
65044;DHT22;51617;48.158;16.464;2022-08-21T14:57:49;22.40;84.70
65044;DHT22;51617;48.158;16.464;2022-08-21T15:00:16;22.40;84.60
65044;DHT22;51617;48.158;16.464;2022-08-21T15:02:42;22.50;84.90
65044;DHT22;51617;48.158;16.464;2022-08-21T15:05:08;22.40;85.00
65044;DHT22;51617;48.158;16.464;2022-08-21T15:07:33;22.40;84.40
65044;DHT22;51617;48.158;16.464;2022-08-21T15:09:59;22.40;85.00
65044;DHT22;51617;48.158;16.464;2022-08-21T15:12:24;22.40;84.40
65044;DHT22;51617;48.158;16.464;2022-08-21T15:14:50;22.30;84.50
65044;DHT22;51617;48.158;16.464;2022-08-21T15:17:16;22.30;84.80
65044;DHT22;51617;48.158;16.464;2022-08-21T15:19:41;22.30;84.80
65044;DHT22;51617;48.158;16.464;2022-08-21T15:22:07;22.30;84.60
65044;DHT22;51617;48.158;16.464;2022-08-21T15:24:32;22.40;84.30
65044;DHT22;51617;48.158;16.464;2022-08-21T15:26:59;22.40;84.10
65044;DHT22;51617;48.158;16.464;2022-08-21T15:29:25;22.40;83.90
65044;DHT22;51617;48.158;16.464;2022-08-21T15:31:54;22.40;83.80
65044;DHT22;51617;48.158;16.464;2022-08-21T15:34:21;22.50;83.30
65044;DHT22;51617;48.158;16.464;2022-08-21T15:36:46;22.50;83.60
65044;DHT22;51617;48.158;16.464;2022-08-21T15:39:12;22.50;83.30
65044;DHT22;51617;48.158;16.464;2022-08-21T15:41:38;22.50;83.10
65044;DHT22;51617;48.158;16.464;2022-08-21T15:44:03;22.50;83.30
65044;DHT22;51617;48.158;16.464;2022-08-21T15:46:29;22.50;83.30
65044;DHT22;51617;48.158;16.464;2022-08-21T15:48:54;22.60;83.20
65044;DHT22;51617;48.158;16.464;2022-08-21T15:51:20;22.60;83.50
65044;DHT22;51617;48.158;16.464;2022-08-21T15:53:45;22.60;83.70
65044;DHT22;51617;48.158;16.464;2022-08-21T15:56:17;22.60;83.50
65044;DHT22;51617;48.158;16.464;2022-08-21T15:58:45;22.50;83.50
65044;DHT22;51617;48.158;16.464;2022-08-21T16:01:10;22.50;83.80
65044;DHT22;51617;48.158;16.464;2022-08-21T16:03:36;22.50;83.60
65044;DHT22;51617;48.158;16.464;2022-08-21T16:06:01;22.60;83.90
65044;DHT22;51617;48.158;16.464;2022-08-21T16:08:27;22.50;84.20
65044;DHT22;51617;48.158;16.464;2022-08-21T16:10:52;22.50;84.30
65044;DHT22;51617;48.158;16.464;2022-08-21T16:13:23;22.50;84.20
65044;DHT22;51617;48.158;16.464;2022-08-21T16:15:50;22.50;84.20
65044;DHT22;51617;48.158;16.464;2022-08-21T16:18:16;22.50;84.70
65044;DHT22;51617;48.158;16.464;2022-08-21T16:20:42;22.40;84.70
65044;DHT22;51617;48.158;16.464;2022-08-21T16:23:07;22.40;84.90
65044;DHT22;51617;48.158;16.464;2022-08-21T16:25:36;22.40;84.70
65044;DHT22;51617;48.158;16.464;2022-08-21T16:28:02;22.40;85.10